Archon Michail — SVA7823 — position and weather

sailwx.info

Track history (hours):
 
Tides and Currents Weather Stations Pressure Air Temp Water Temp Dewpoint Dewpoint Depression Visibility Wind Speed Wind Dir Waves Ship Positions

Archon Michail

Last reported at 2018-Jul-22 21:57 UTC. Time now 2018-Jul-22 21:59 UTC.
Position N 37°58' E 023°37'.

Length 65 m; draft 3 m.

Type: Ship (hazmat cat A). MMSI: 240043800.

Date/timePositionNaut miles runAvg speedWind from/ knotsBaromVisibWave heightAir tempDewpointWater temp
2018-Jul-22 21:57N 37°58' E 023°37'0 0.0
2018-Jul-22 21:27N 37°58' E 023°37'0 0.0
2018-Jul-22 20:57N 37°58' E 023°37'0 0.0
2018-Jul-22 20:27N 37°58' E 023°37'0 0.0
2018-Jul-22 19:57N 37°58' E 023°37'0 0.0
2018-Jul-22 19:27N 37°58' E 023°37'0 0.0
2018-Jul-22 18:57N 37°58' E 023°37'0 0.0
2018-Jul-22 18:27N 37°58' E 023°37'0 0.0
2018-Jul-22 17:57N 37°58' E 023°37'0 0.0
2018-Jul-22 17:27N 37°58' E 023°37'0 0.0
2018-Jul-22 17:00N 37°58' E 023°37'0 0.0
2018-Jul-22 16:30N 37°58' E 023°37'0 0.0
2018-Jul-22 16:00N 37°58' E 023°37'0 0.0
2018-Jul-22 15:00N 37°58' E 023°37'0 0.0
2018-Jul-22 14:30N 37°58' E 023°37'0 0.0
2018-Jul-22 14:00N 37°58' E 023°37'0 0.0
2018-Jul-22 13:30N 37°58' E 023°37'0 0.0
2018-Jul-22 13:00N 37°58' E 023°37'0 0.0
2018-Jul-22 12:30N 37°58' E 023°37'1 2.7
2018-Jul-22 12:00N 37°56' E 023°38'0 0.5
2018-Jul-22 11:30N 37°57' E 023°38'0 0.3
2018-Jul-22 11:00N 37°56' E 023°38'0 0.0
2018-Jul-22 10:30N 37°56' E 023°38'0 0.0
2018-Jul-22 10:00N 37°56' E 023°38'0 0.0
2018-Jul-22 09:30N 37°56' E 023°38'0 0.0
2018-Jul-22 09:00N 37°56' E 023°38'0 0.0
2018-Jul-22 08:30N 37°56' E 023°38'0 0.0
2018-Jul-22 08:00N 37°56' E 023°38'0 0.0
2018-Jul-22 07:30N 37°56' E 023°38'0 0.0
2018-Jul-22 07:00N 37°56' E 023°38'0 0.0
2018-Jul-22 06:30N 37°56' E 023°38'0 0.0
2018-Jul-22 06:00N 37°56' E 023°38'1 3.0
2018-Jul-22 05:30N 37°57' E 023°36'1 1.6
2018-Jul-22 04:57N 37°58' E 023°37'0 0.0
2018-Jul-22 04:30N 37°58' E 023°37'0 0.0
2018-Jul-22 04:00N 37°58' E 023°37'0 0.0
2018-Jul-22 03:30N 37°58' E 023°37'0 0.0
2018-Jul-22 03:00N 37°58' E 023°37'0 0.0
2018-Jul-22 02:30N 37°58' E 023°37'0 0.0
2018-Jul-22 02:00N 37°58' E 023°37'0 0.0
2018-Jul-22 01:30N 37°58' E 023°37'0 0.0
2018-Jul-22 01:00N 37°58' E 023°37'0 0.0
2018-Jul-22 00:30N 37°58' E 023°37'0 0.0
2018-Jul-22 00:00N 37°58' E 023°37'0 0.0
2018-Jul-21 23:30N 37°58' E 023°37'0 0.0
2018-Jul-21 23:00N 37°58' E 023°37'0 0.0
2018-Jul-21 22:30N 37°58' E 023°37'0 0.0
2018-Jul-21 22:00N 37°58' E 023°37'0 0.0
2018-Jul-21 21:24N 37°58' E 023°37'0 0.0
2018-Jul-21 21:00N 37°58' E 023°37'0 0.0
2018-Jul-21 20:27N 37°58' E 023°37'0 0.0
2018-Jul-21 20:00N 37°58' E 023°37'0 0.0
2018-Jul-21 19:30N 37°58' E 023°37'0 0.0
2018-Jul-21 19:00N 37°58' E 023°37'0 0.0
2018-Jul-21 18:30N 37°58' E 023°37'0 0.0
2018-Jul-21 17:57N 37°58' E 023°37'1 1.4
2018-Jul-21 17:30N 37°57' E 023°36'3 5.3
2018-Jul-21 17:00N 37°58' E 023°33'3 6.8
2018-Jul-21 16:30N 38°01' E 023°32'1 0.2
2018-Jul-21 09:33N 38°02' E 023°31'0 3.7
2018-Jul-21 09:30N 38°02' E 023°31'4 0.7
2018-Jul-21 04:33N 38°02' E 023°36'0 5.3
2018-Jul-21 04:28N 38°01' E 023°35'2 4.8
2018-Jul-21 04:00N 37°60' E 023°33'3 6.1
2018-Jul-21 03:30N 37°57' E 023°35'1 2.7
2018-Jul-21 03:00N 37°58' E 023°37'0 0.0
2018-Jul-21 02:27N 37°58' E 023°37'0 0.0
2018-Jul-21 02:00N 37°58' E 023°37'0 0.0
2018-Jul-21 01:27N 37°58' E 023°37'0 0.0
2018-Jul-21 01:00N 37°58' E 023°37'0 0.0
2018-Jul-21 00:30N 37°58' E 023°37'0 0.0
2018-Jul-21 00:00N 37°58' E 023°37'0 0.0
2018-Jul-20 23:30N 37°58' E 023°37'0 0.0
2018-Jul-20 23:00N 37°58' E 023°37'0 0.0
2018-Jul-20 22:27N 37°58' E 023°37'0 0.0
2018-Jul-20 22:00N 37°58' E 023°37'0 0.0
2018-Jul-20 21:30N 37°58' E 023°37'0 0.0
2018-Jul-20 21:00N 37°58' E 023°37'0 0.0
2018-Jul-20 20:30N 37°58' E 023°37'0 0.0
2018-Jul-20 19:57N 37°58' E 023°37'0 0.0
2018-Jul-20 19:27N 37°58' E 023°37'0 0.0
2018-Jul-20 19:00N 37°58' E 023°37'0 0.0
2018-Jul-20 18:30N 37°58' E 023°37'0 0.0
2018-Jul-20 18:00N 37°58' E 023°37'0 0.0
2018-Jul-20 17:30N 37°58' E 023°37'0 0.0
2018-Jul-20 16:57N 37°58' E 023°37'0 0.0
2018-Jul-20 16:30N 37°58' E 023°37'0 0.0
2018-Jul-20 16:00N 37°58' E 023°37'0 0.0
2018-Jul-20 15:30N 37°58' E 023°37'0 0.0
2018-Jul-20 15:00N 37°58' E 023°37'0 0.0
2018-Jul-20 14:30N 37°58' E 023°37'0 0.0
2018-Jul-20 14:00N 37°58' E 023°37'0 0.0
2018-Jul-20 13:30N 37°58' E 023°37'0 0.0
2018-Jul-20 13:00N 37°58' E 023°37'0 0.0
2018-Jul-20 12:30N 37°58' E 023°37'0 0.0
2018-Jul-20 12:00N 37°58' E 023°37'0 0.0
2018-Jul-20 11:27N 37°58' E 023°37'0 0.0
2018-Jul-20 11:00N 37°58' E 023°37'0 0.0
2018-Jul-20 10:30N 37°58' E 023°37'0 0.0
2018-Jul-20 09:57N 37°58' E 023°37'0 0.0
2018-Jul-20 09:30N 37°58' E 023°37'0 0.0
2018-Jul-20 09:00N 37°58' E 023°37'0 0.0
2018-Jul-20 08:30N 37°58' E 023°37'0 0.0
2018-Jul-20 07:54N 37°58' E 023°37'0 0.0
2018-Jul-20 07:30N 37°58' E 023°37'0 0.0
2018-Jul-20 07:00N 37°58' E 023°37'0 0.0
2018-Jul-20 06:30N 37°58' E 023°37'0 0.0
2018-Jul-20 06:00N 37°58' E 023°37'0 0.0
2018-Jul-20 05:30N 37°58' E 023°37'0 0.0
2018-Jul-20 05:00N 37°58' E 023°37'0 0.0
2018-Jul-20 04:30N 37°58' E 023°37'0 0.0
2018-Jul-20 04:00N 37°58' E 023°37'0 0.0
2018-Jul-20 03:27N 37°58' E 023°37'0 0.0
2018-Jul-20 03:00N 37°58' E 023°37'1 1.5
2018-Jul-20 02:31N 37°57' E 023°36'2 3.6
2018-Jul-20 01:58N 37°57' E 023°38'0 0.0
2018-Jul-20 01:25N 37°57' E 023°38'0 0.0
2018-Jul-20 00:58N 37°57' E 023°38'0 0.0
2018-Jul-20 00:28N 37°57' E 023°38'0 0.0
2018-Jul-19 23:58N 37°57' E 023°38'0 0.0
2018-Jul-19 23:28N 37°57' E 023°38'0 0.0
2018-Jul-19 22:58N 37°57' E 023°38'1 2.6
2018-Jul-19 22:31N 37°56' E 023°37'1 1.9
2018-Jul-19 21:55N 37°58' E 023°37'0 0.0
2018-Jul-19 21:25N 37°58' E 023°37'0 0.0
2018-Jul-19 20:55N 37°58' E 023°37'0 0.0
2018-Jul-19 20:25N 37°58' E 023°37'0 0.0
2018-Jul-19 19:55N 37°58' E 023°37'0 0.0
2018-Jul-19 19:25N 37°58' E 023°37'0 0.0
2018-Jul-19 18:58N 37°58' E 023°37'0 0.0
2018-Jul-19 18:28N 37°58' E 023°37'0 0.0
2018-Jul-19 17:58N 37°58' E 023°37'0 0.0
2018-Jul-19 17:28N 37°58' E 023°37'0 0.0
2018-Jul-19 16:58N 37°58' E 023°37'0 0.0
2018-Jul-19 16:28N 37°58' E 023°37'0 0.0
2018-Jul-19 15:55N 37°58' E 023°37'0 0.0
2018-Jul-19 15:28N 37°58' E 023°37'0 0.0
2018-Jul-19 14:58N 37°58' E 023°37'0 0.0
2018-Jul-19 13:58N 37°58' E 023°37'0 0.0
2018-Jul-19 13:28N 37°58' E 023°37'1 2.6
2018-Jul-19 13:00N 37°56' E 023°37'1 1.2
2018-Jul-19 12:26N 37°56' E 023°38'0 0.0
2018-Jul-19 11:59N 37°56' E 023°38'0 0.0
2018-Jul-19 11:26N 37°56' E 023°38'0 0.0
2018-Jul-19 10:59N 37°56' E 023°38'0 0.0
2018-Jul-19 10:29N 37°56' E 023°38'0 0.0
2018-Jul-19 09:59N 37°56' E 023°38'0 0.6
2018-Jul-19 09:30N 37°56' E 023°38'0 0.0
2018-Jul-19 09:00N 37°56' E 023°38'0 0.0
2018-Jul-19 08:28N 37°56' E 023°38'0 0.0
2018-Jul-19 08:00N 37°56' E 023°38'0 0.0
2018-Jul-19 07:30N 37°56' E 023°38'0 0.0
2018-Jul-19 07:00N 37°56' E 023°38'0 0.0
2018-Jul-19 06:28N 37°56' E 023°38'0 0.0
2018-Jul-19 06:00N 37°56' E 023°38'2 4.1
2018-Jul-19 05:30N 37°57' E 023°36'1 1.6
2018-Jul-19 04:57N 37°58' E 023°37'0 0.0
2018-Jul-19 04:30N 37°58' E 023°37'0 0.0
2018-Jul-19 03:54N 37°58' E 023°37'0 0.0
2018-Jul-19 03:30N 37°58' E 023°37'0 0.0
2018-Jul-19 03:00N 37°58' E 023°37'0 0.0
2018-Jul-19 02:30N 37°58' E 023°37'0 0.0
2018-Jul-19 02:00N 37°58' E 023°37'0 0.0
2018-Jul-19 01:27N 37°58' E 023°37'0 0.0
2018-Jul-19 01:00N 37°58' E 023°37'0 0.0
2018-Jul-19 00:30N 37°58' E 023°37'0 0.0
2018-Jul-19 00:00N 37°58' E 023°37'0 0.0
2018-Jul-18 23:30N 37°58' E 023°37'0 0.0
2018-Jul-18 23:00N 37°58' E 023°37'0 0.0
2018-Jul-18 22:30N 37°58' E 023°37'0 0.0
2018-Jul-18 22:00N 37°58' E 023°37'0 0.0
2018-Jul-18 21:30N 37°58' E 023°37'0 0.0
2018-Jul-18 21:00N 37°58' E 023°37'0 0.0
2018-Jul-18 20:30N 37°58' E 023°37'0 0.0
2018-Jul-18 20:00N 37°58' E 023°37'0 0.0
2018-Jul-18 19:30N 37°58' E 023°37'0 0.0
2018-Jul-18 19:00N 37°58' E 023°37'0 0.0
2018-Jul-18 18:30N 37°58' E 023°37'0 0.0
2018-Jul-18 18:00N 37°58' E 023°37'0 0.0
2018-Jul-18 17:30N 37°58' E 023°37'0 0.0
2018-Jul-18 17:00N 37°58' E 023°37'0 0.0
2018-Jul-18 16:30N 37°58' E 023°37'0 0.0
2018-Jul-18 16:00N 37°58' E 023°37'0 0.0
2018-Jul-18 15:27N 37°58' E 023°37'0 0.0
2018-Jul-18 15:00N 37°58' E 023°37'0 0.0
2018-Jul-18 14:30N 37°58' E 023°37'0 0.0
2018-Jul-18 13:30N 37°58' E 023°37'0 0.4
2018-Jul-18 13:00N 37°57' E 023°36'3 5.9
2018-Jul-18 12:30N 37°58' E 023°33'4 0.7
2018-Jul-18 05:52N 38°02' E 023°31'2 6.4
2018-Jul-18 05:30N 38°00' E 023°32'3 6.4
2018-Jul-18 05:00N 37°57' E 023°34'1 2.3
2018-Jul-18 04:26N 37°57' E 023°36'0 0.1
2018-Jul-18 03:58N 37°57' E 023°36'0 0.0
2018-Jul-18 03:28N 37°57' E 023°36'0 0.0
2018-Jul-18 02:58N 37°57' E 023°36'0 0.0
2018-Jul-18 02:26N 37°57' E 023°36'0 0.0
2018-Jul-18 01:56N 37°57' E 023°36'0 0.0
2018-Jul-18 01:28N 37°57' E 023°36'0 0.0
2018-Jul-18 00:58N 37°57' E 023°36'0 0.0
2018-Jul-18 00:28N 37°57' E 023°36'0 0.0
2018-Jul-17 23:58N 37°57' E 023°36'0 0.0
2018-Jul-17 23:28N 37°57' E 023°36'0 0.0
2018-Jul-17 22:58N 37°57' E 023°36'0 0.0
2018-Jul-17 22:28N 37°57' E 023°36'0 0.0
2018-Jul-17 21:58N 37°57' E 023°36'1 1.5
2018-Jul-17 21:29N 37°58' E 023°37'0 0.0
2018-Jul-17 20:59N 37°58' E 023°37'0 0.0
2018-Jul-17 20:29N 37°58' E 023°37'0 0.0
2018-Jul-17 19:59N 37°58' E 023°37'0 0.0
2018-Jul-17 19:29N 37°58' E 023°37'0 0.0
2018-Jul-17 18:56N 37°58' E 023°37'0 0.0
2018-Jul-17 18:29N 37°58' E 023°37'0 0.0
2018-Jul-17 17:59N 37°58' E 023°37'0 0.0
2018-Jul-17 17:29N 37°58' E 023°37'0 0.0
2018-Jul-17 16:59N 37°58' E 023°37'0 0.0
2018-Jul-17 16:29N 37°58' E 023°37'0 0.0
2018-Jul-17 15:59N 37°58' E 023°37'0 0.0
2018-Jul-17 15:29N 37°58' E 023°37'0 0.0
2018-Jul-17 14:59N 37°58' E 023°37'2 4.9
2018-Jul-17 14:30N 37°57' E 023°34'3 6.4
2018-Jul-17 14:00N 38°00' E 023°33'2 0.6
2018-Jul-17 11:38N 38°02' E 023°32'1 6.2
2018-Jul-17 11:30N 38°01' E 023°32'4 7.4
2018-Jul-17 11:00N 37°58' E 023°33'3 6.4
2018-Jul-17 10:31N 37°56' E 023°37'1 2.1
2018-Jul-17 10:00N 37°57' E 023°38'0 0.0
2018-Jul-17 09:27N 37°57' E 023°38'0 0.0
2018-Jul-17 08:57N 37°57' E 023°38'0 0.0
2018-Jul-17 08:30N 37°57' E 023°38'0 0.0
2018-Jul-17 08:00N 37°57' E 023°38'0 0.0
2018-Jul-17 07:30N 37°57' E 023°38'0 0.0
2018-Jul-17 07:00N 37°57' E 023°38'0 0.1
2018-Jul-17 06:30N 37°57' E 023°38'1 2.3
2018-Jul-17 06:00N 37°56' E 023°37'3 1.3
2018-Jul-17 03:47N 37°55' E 023°33'2 6.8
2018-Jul-17 03:30N 37°56' E 023°35'2 0.3
2018-Jul-16 21:08N 37°58' E 023°37'0 0.0
2018-Jul-16 20:59N 37°58' E 023°37'0 0.0
2018-Jul-16 20:29N 37°58' E 023°37'0 0.0
2018-Jul-16 19:56N 37°58' E 023°37'0 0.0
2018-Jul-16 19:29N 37°58' E 023°37'0 0.0
2018-Jul-16 18:59N 37°58' E 023°37'1 2.0
2018-Jul-16 18:31N 37°57' E 023°36'3 5.8
2018-Jul-16 18:01N 37°59' E 023°33'4 0.7
2018-Jul-16 12:48N 38°02' E 023°35'2 8.1
2018-Jul-16 12:30N 38°00' E 023°33'3 6.6
2018-Jul-16 12:00N 37°57' E 023°35'0 0.8
2018-Jul-16 11:29N 37°57' E 023°36'0 0.0
2018-Jul-16 10:59N 37°57' E 023°36'0 0.0
2018-Jul-16 10:29N 37°57' E 023°36'0 0.0
2018-Jul-16 09:59N 37°57' E 023°36'0 0.0
2018-Jul-16 09:26N 37°57' E 023°36'0 0.0
2018-Jul-16 08:59N 37°57' E 023°36'1 1.3
2018-Jul-16 08:30N 37°57' E 023°36'2 3.2
2018-Jul-16 07:59N 37°56' E 023°38'0 0.0
2018-Jul-16 07:29N 37°56' E 023°38'0 0.0
2018-Jul-16 06:58N 37°56' E 023°38'0 0.0
2018-Jul-16 06:28N 37°56' E 023°38'0 0.0
2018-Jul-16 05:58N 37°56' E 023°38'0 0.0
2018-Jul-16 05:28N 37°56' E 023°38'0 0.0
2018-Jul-16 04:55N 37°56' E 023°38'1 3.1
2018-Jul-16 04:30N 37°56' E 023°37'0 0.4
2018-Jul-16 03:57N 37°56' E 023°37'3 5.9
2018-Jul-16 03:30N 37°57' E 023°34'3 6.2
2018-Jul-16 03:00N 38°00' E 023°34'1 0.3
2018-Jul-15 23:04N 38°01' E 023°35'0 4.3
2018-Jul-15 23:00N 38°01' E 023°35'1 0.1
2018-Jul-15 12:31N 38°02' E 023°35'0 2.8
2018-Jul-15 12:30N 38°02' E 023°35'0 0.0
2018-Jul-15 04:16N 38°02' E 023°35'2 6.2
2018-Jul-15 04:01N 38°00' E 023°34'3 6.3
2018-Jul-15 03:30N 37°57' E 023°34'2 3.3
2018-Jul-15 02:55N 37°58' E 023°37'0 0.0
2018-Jul-15 02:25N 37°58' E 023°37'0 0.0
2018-Jul-15 01:55N 37°58' E 023°37'0 0.0
2018-Jul-15 01:25N 37°58' E 023°37'0 0.0
2018-Jul-15 00:55N 37°58' E 023°37'0 0.0
2018-Jul-15 00:25N 37°58' E 023°37'0 0.0
2018-Jul-14 23:55N 37°58' E 023°37'0 0.0
2018-Jul-14 23:13N 37°58' E 023°37'0 0.0
2018-Jul-14 22:55N 37°58' E 023°37'0 0.0
2018-Jul-14 22:25N 37°58' E 023°37'0 0.0
2018-Jul-14 21:55N 37°58' E 023°37'0 0.0
2018-Jul-14 21:25N 37°58' E 023°37'0 0.0
2018-Jul-14 20:55N 37°58' E 023°37'0 0.0
2018-Jul-14 20:25N 37°58' E 023°37'0 0.0
2018-Jul-14 19:55N 37°58' E 023°37'0 0.0
2018-Jul-14 19:25N 37°58' E 023°37'0 0.0
2018-Jul-14 18:55N 37°58' E 023°37'0 0.0
2018-Jul-14 18:25N 37°58' E 023°37'0 0.0
2018-Jul-14 17:55N 37°58' E 023°37'0 0.0
2018-Jul-14 17:25N 37°58' E 023°37'0 0.0
2018-Jul-14 16:55N 37°58' E 023°37'0 0.0
2018-Jul-14 16:25N 37°58' E 023°37'0 0.0
2018-Jul-14 15:43N 37°58' E 023°37'0 0.0
2018-Jul-14 15:01N 37°58' E 023°37'0 0.0
2018-Jul-14 14:43N 37°58' E 023°37'0 0.0
2018-Jul-14 14:25N 37°58' E 023°37'0 0.0
2018-Jul-14 13:31N 37°58' E 023°37'0 0.0
2018-Jul-14 12:55N 37°58' E 023°37'0 0.0
2018-Jul-14 12:25N 37°58' E 023°37'0 0.0
2018-Jul-14 11:55N 37°58' E 023°37'0 0.0
2018-Jul-14 11:25N 37°58' E 023°37'0 0.0
2018-Jul-14 10:55N 37°58' E 023°37'0 0.0
2018-Jul-14 10:19N 37°58' E 023°37'0 0.0
2018-Jul-14 09:55N 37°58' E 023°37'0 0.0
2018-Jul-14 09:19N 37°58' E 023°37'0 0.0
2018-Jul-14 08:55N 37°58' E 023°37'0 0.0
2018-Jul-14 08:19N 37°58' E 023°37'0 0.0
2018-Jul-14 07:55N 37°58' E 023°37'0 0.0
2018-Jul-14 07:25N 37°58' E 023°37'0 0.0
2018-Jul-14 06:55N 37°58' E 023°37'0 0.0
2018-Jul-14 06:25N 37°58' E 023°37'0 0.0
2018-Jul-14 05:55N 37°58' E 023°37'0 0.0
2018-Jul-14 05:25N 37°58' E 023°37'0 0.0
2018-Jul-14 04:49N 37°58' E 023°37'0 0.0
2018-Jul-14 04:25N 37°58' E 023°37'0 0.0
2018-Jul-14 03:49N 37°58' E 023°37'0 0.0
2018-Jul-14 03:25N 37°58' E 023°37'0 0.0
2018-Jul-14 03:01N 37°58' E 023°37'0 0.0
2018-Jul-14 02:19N 37°58' E 023°37'0 0.0
2018-Jul-14 01:49N 37°58' E 023°37'0 0.0
2018-Jul-14 01:25N 37°58' E 023°37'0 0.0
2018-Jul-14 00:55N 37°58' E 023°37'0 0.0
2018-Jul-14 00:25N 37°58' E 023°37'0 0.0
2018-Jul-13 23:55N 37°58' E 023°37'0 0.0
2018-Jul-13 23:25N 37°58' E 023°37'0 0.0
2018-Jul-13 22:59N 37°58' E 023°37'0 0.0
2018-Jul-13 22:25N 37°58' E 023°37'0 0.0
2018-Jul-13 21:59N 37°58' E 023°37'0 0.0
2018-Jul-13 21:29N 37°58' E 023°37'0 0.0
2018-Jul-13 21:01N 37°58' E 023°37'0 0.0
2018-Jul-13 20:29N 37°58' E 023°37'0 0.0
2018-Jul-13 19:59N 37°58' E 023°37'0 0.0
2018-Jul-13 19:25N 37°58' E 023°37'0 0.0
2018-Jul-13 18:55N 37°58' E 023°37'0 0.0
2018-Jul-13 18:29N 37°58' E 023°37'0 0.0
2018-Jul-13 17:59N 37°58' E 023°37'0 0.0
2018-Jul-13 17:29N 37°58' E 023°37'0 0.0
2018-Jul-13 16:55N 37°58' E 023°37'0 0.0
2018-Jul-13 16:29N 37°58' E 023°37'0 0.0
2018-Jul-13 15:55N 37°58' E 023°37'0 0.0
2018-Jul-13 15:29N 37°58' E 023°37'0 0.0
2018-Jul-13 14:59N 37°58' E 023°37'0 0.0
2018-Jul-13 13:59N 37°58' E 023°37'0 0.0
2018-Jul-13 13:29N 37°58' E 023°37'0 0.0
2018-Jul-13 12:59N 37°58' E 023°37'0 0.0
2018-Jul-13 12:29N 37°58' E 023°37'0 0.0
2018-Jul-13 11:59N 37°58' E 023°37'0 0.0
2018-Jul-13 11:29N 37°58' E 023°37'0 0.0
2018-Jul-13 10:53N 37°58' E 023°37'0 0.0
2018-Jul-13 10:29N 37°58' E 023°37'0 0.0
2018-Jul-13 09:59N 37°58' E 023°37'0 0.0
2018-Jul-13 09:29N 37°58' E 023°37'0 0.0
2018-Jul-13 08:55N 37°58' E 023°37'0 0.0
2018-Jul-13 08:29N 37°58' E 023°37'0 0.1
2018-Jul-13 07:59N 37°57' E 023°37'2 3.4
2018-Jul-13 07:30N 37°56' E 023°38'0 0.0
2018-Jul-13 07:00N 37°56' E 023°38'0 0.0
2018-Jul-13 06:30N 37°56' E 023°38'0 0.0
2018-Jul-13 06:00N 37°56' E 023°38'1 1.5
2018-Jul-13 05:30N 37°56' E 023°37'1 2.3
2018-Jul-13 04:58N 37°58' E 023°37'0 0.0
2018-Jul-13 04:28N 37°58' E 023°37'0 0.0
2018-Jul-13 03:58N 37°58' E 023°37'0 0.0
2018-Jul-13 03:25N 37°58' E 023°37'0 0.0
2018-Jul-13 02:58N 37°58' E 023°37'0 0.0
2018-Jul-13 02:28N 37°58' E 023°37'0 0.0
2018-Jul-13 01:58N 37°58' E 023°37'0 0.0
2018-Jul-13 01:28N 37°58' E 023°37'0 0.0
2018-Jul-13 00:58N 37°58' E 023°37'0 0.0
2018-Jul-13 00:28N 37°58' E 023°37'0 0.0
2018-Jul-12 23:58N 37°58' E 023°37'0 0.0
2018-Jul-12 23:28N 37°58' E 023°37'0 0.0
2018-Jul-12 22:58N 37°58' E 023°37'0 0.0
2018-Jul-12 22:28N 37°58' E 023°37'0 0.0
2018-Jul-12 21:58N 37°58' E 023°37'  
Track history (hours):
 
Tides and Currents Weather Stations Pressure Air Temp Water Temp Dewpoint Dewpoint Depression Visibility Wind Speed Wind Dir Waves Ship Positions

Archon Michail

Last reported at 2018-Jul-22 21:57 UTC. Time now 2018-Jul-22 21:59 UTC.
Position N 37°58' E 023°37'.

Length 65 m; draft 3 m.

Type: Ship (hazmat cat A). MMSI: 240043800.

Date/timePositionNaut miles runAvg speedWind from/ knotsBaromVisibWave heightAir tempDewpointWater temp
2018-Jul-22 21:57N 37°58' E 023°37'0 0.0
2018-Jul-22 21:27N 37°58' E 023°37'0 0.0
2018-Jul-22 20:57N 37°58' E 023°37'0 0.0
2018-Jul-22 20:27N 37°58' E 023°37'0 0.0
2018-Jul-22 19:57N 37°58' E 023°37'0 0.0
2018-Jul-22 19:27N 37°58' E 023°37'0 0.0
2018-Jul-22 18:57N 37°58' E 023°37'0 0.0
2018-Jul-22 18:27N 37°58' E 023°37'0 0.0
2018-Jul-22 17:57N 37°58' E 023°37'0 0.0
2018-Jul-22 17:27N 37°58' E 023°37'0 0.0
2018-Jul-22 17:00N 37°58' E 023°37'0 0.0
2018-Jul-22 16:30N 37°58' E 023°37'0 0.0
2018-Jul-22 16:00N 37°58' E 023°37'0 0.0
2018-Jul-22 15:00N 37°58' E 023°37'0 0.0
2018-Jul-22 14:30N 37°58' E 023°37'0 0.0
2018-Jul-22 14:00N 37°58' E 023°37'0 0.0
2018-Jul-22 13:30N 37°58' E 023°37'0 0.0
2018-Jul-22 13:00N 37°58' E 023°37'0 0.0
2018-Jul-22 12:30N 37°58' E 023°37'1 2.7
2018-Jul-22 12:00N 37°56' E 023°38'0 0.5
2018-Jul-22 11:30N 37°57' E 023°38'0 0.3
2018-Jul-22 11:00N 37°56' E 023°38'0 0.0
2018-Jul-22 10:30N 37°56' E 023°38'0 0.0
2018-Jul-22 10:00N 37°56' E 023°38'0 0.0
2018-Jul-22 09:30N 37°56' E 023°38'0 0.0
2018-Jul-22 09:00N 37°56' E 023°38'0 0.0
2018-Jul-22 08:30N 37°56' E 023°38'0 0.0
2018-Jul-22 08:00N 37°56' E 023°38'0 0.0
2018-Jul-22 07:30N 37°56' E 023°38'0 0.0
2018-Jul-22 07:00N 37°56' E 023°38'0 0.0
2018-Jul-22 06:30N 37°56' E 023°38'0 0.0
2018-Jul-22 06:00N 37°56' E 023°38'1 3.0
2018-Jul-22 05:30N 37°57' E 023°36'1 1.6
2018-Jul-22 04:57N 37°58' E 023°37'0 0.0
2018-Jul-22 04:30N 37°58' E 023°37'0 0.0
2018-Jul-22 04:00N 37°58' E 023°37'0 0.0
2018-Jul-22 03:30N 37°58' E 023°37'0 0.0
2018-Jul-22 03:00N 37°58' E 023°37'0 0.0
2018-Jul-22 02:30N 37°58' E 023°37'0 0.0
2018-Jul-22 02:00N 37°58' E 023°37'0 0.0
2018-Jul-22 01:30N 37°58' E 023°37'0 0.0
2018-Jul-22 01:00N 37°58' E 023°37'0 0.0
2018-Jul-22 00:30N 37°58' E 023°37'0 0.0
2018-Jul-22 00:00N 37°58' E 023°37'0 0.0
2018-Jul-21 23:30N 37°58' E 023°37'0 0.0
2018-Jul-21 23:00N 37°58' E 023°37'0 0.0
2018-Jul-21 22:30N 37°58' E 023°37'0 0.0
2018-Jul-21 22:00N 37°58' E 023°37'0 0.0
2018-Jul-21 21:24N 37°58' E 023°37'0 0.0
2018-Jul-21 21:00N 37°58' E 023°37'0 0.0
2018-Jul-21 20:27N 37°58' E 023°37'0 0.0
2018-Jul-21 20:00N 37°58' E 023°37'0 0.0
2018-Jul-21 19:30N 37°58' E 023°37'0 0.0
2018-Jul-21 19:00N 37°58' E 023°37'0 0.0
2018-Jul-21 18:30N 37°58' E 023°37'0 0.0
2018-Jul-21 17:57N 37°58' E 023°37'1 1.4
2018-Jul-21 17:30N 37°57' E 023°36'3 5.3
2018-Jul-21 17:00N 37°58' E 023°33'3 6.8
2018-Jul-21 16:30N 38°01' E 023°32'1 0.2
2018-Jul-21 09:33N 38°02' E 023°31'0 3.7
2018-Jul-21 09:30N 38°02' E 023°31'4 0.7
2018-Jul-21 04:33N 38°02' E 023°36'0 5.3
2018-Jul-21 04:28N 38°01' E 023°35'2 4.8
2018-Jul-21 04:00N 37°60' E 023°33'3 6.1
2018-Jul-21 03:30N 37°57' E 023°35'1 2.7
2018-Jul-21 03:00N 37°58' E 023°37'0 0.0
2018-Jul-21 02:27N 37°58' E 023°37'0 0.0
2018-Jul-21 02:00N 37°58' E 023°37'0 0.0
2018-Jul-21 01:27N 37°58' E 023°37'0 0.0
2018-Jul-21 01:00N 37°58' E 023°37'0 0.0
2018-Jul-21 00:30N 37°58' E 023°37'0 0.0
2018-Jul-21 00:00N 37°58' E 023°37'0 0.0
2018-Jul-20 23:30N 37°58' E 023°37'0 0.0
2018-Jul-20 23:00N 37°58' E 023°37'0 0.0
2018-Jul-20 22:27N 37°58' E 023°37'0 0.0
2018-Jul-20 22:00N 37°58' E 023°37'0 0.0
2018-Jul-20 21:30N 37°58' E 023°37'0 0.0
2018-Jul-20 21:00N 37°58' E 023°37'0 0.0
2018-Jul-20 20:30N 37°58' E 023°37'0 0.0
2018-Jul-20 19:57N 37°58' E 023°37'0 0.0
2018-Jul-20 19:27N 37°58' E 023°37'0 0.0
2018-Jul-20 19:00N 37°58' E 023°37'0 0.0
2018-Jul-20 18:30N 37°58' E 023°37'0 0.0
2018-Jul-20 18:00N 37°58' E 023°37'0 0.0
2018-Jul-20 17:30N 37°58' E 023°37'0 0.0
2018-Jul-20 16:57N 37°58' E 023°37'0 0.0
2018-Jul-20 16:30N 37°58' E 023°37'0 0.0
2018-Jul-20 16:00N 37°58' E 023°37'0 0.0
2018-Jul-20 15:30N 37°58' E 023°37'0 0.0
2018-Jul-20 15:00N 37°58' E 023°37'0 0.0
2018-Jul-20 14:30N 37°58' E 023°37'0 0.0
2018-Jul-20 14:00N 37°58' E 023°37'0 0.0
2018-Jul-20 13:30N 37°58' E 023°37'0 0.0
2018-Jul-20 13:00N 37°58' E 023°37'0 0.0
2018-Jul-20 12:30N 37°58' E 023°37'0 0.0
2018-Jul-20 12:00N 37°58' E 023°37'0 0.0
2018-Jul-20 11:27N 37°58' E 023°37'0 0.0
2018-Jul-20 11:00N 37°58' E 023°37'0 0.0
2018-Jul-20 10:30N 37°58' E 023°37'0 0.0
2018-Jul-20 09:57N 37°58' E 023°37'0 0.0
2018-Jul-20 09:30N 37°58' E 023°37'0 0.0
2018-Jul-20 09:00N 37°58' E 023°37'0 0.0
2018-Jul-20 08:30N 37°58' E 023°37'0 0.0
2018-Jul-20 07:54N 37°58' E 023°37'0 0.0
2018-Jul-20 07:30N 37°58' E 023°37'0 0.0
2018-Jul-20 07:00N 37°58' E 023°37'0 0.0
2018-Jul-20 06:30N 37°58' E 023°37'0 0.0
2018-Jul-20 06:00N 37°58' E 023°37'0 0.0
2018-Jul-20 05:30N 37°58' E 023°37'0 0.0
2018-Jul-20 05:00N 37°58' E 023°37'0 0.0
2018-Jul-20 04:30N 37°58' E 023°37'0 0.0
2018-Jul-20 04:00N 37°58' E 023°37'0 0.0
2018-Jul-20 03:27N 37°58' E 023°37'0 0.0
2018-Jul-20 03:00N 37°58' E 023°37'1 1.5
2018-Jul-20 02:31N 37°57' E 023°36'2 3.6
2018-Jul-20 01:58N 37°57' E 023°38'0 0.0
2018-Jul-20 01:25N 37°57' E 023°38'0 0.0
2018-Jul-20 00:58N 37°57' E 023°38'0 0.0
2018-Jul-20 00:28N 37°57' E 023°38'0 0.0
2018-Jul-19 23:58N 37°57' E 023°38'0 0.0
2018-Jul-19 23:28N 37°57' E 023°38'0 0.0
2018-Jul-19 22:58N 37°57' E 023°38'1 2.6
2018-Jul-19 22:31N 37°56' E 023°37'1 1.9
2018-Jul-19 21:55N 37°58' E 023°37'0 0.0
2018-Jul-19 21:25N 37°58' E 023°37'0 0.0
2018-Jul-19 20:55N 37°58' E 023°37'0 0.0
2018-Jul-19 20:25N 37°58' E 023°37'0 0.0
2018-Jul-19 19:55N 37°58' E 023°37'0 0.0
2018-Jul-19 19:25N 37°58' E 023°37'0 0.0
2018-Jul-19 18:58N 37°58' E 023°37'0 0.0
2018-Jul-19 18:28N 37°58' E 023°37'0 0.0
2018-Jul-19 17:58N 37°58' E 023°37'0 0.0
2018-Jul-19 17:28N 37°58' E 023°37'0 0.0
2018-Jul-19 16:58N 37°58' E 023°37'0 0.0
2018-Jul-19 16:28N 37°58' E 023°37'0 0.0
2018-Jul-19 15:55N 37°58' E 023°37'0 0.0
2018-Jul-19 15:28N 37°58' E 023°37'0 0.0
2018-Jul-19 14:58N 37°58' E 023°37'0 0.0
2018-Jul-19 13:58N 37°58' E 023°37'0 0.0
2018-Jul-19 13:28N 37°58' E 023°37'1 2.6
2018-Jul-19 13:00N 37°56' E 023°37'1 1.2
2018-Jul-19 12:26N 37°56' E 023°38'0 0.0
2018-Jul-19 11:59N 37°56' E 023°38'0 0.0
2018-Jul-19 11:26N 37°56' E 023°38'0 0.0
2018-Jul-19 10:59N 37°56' E 023°38'0 0.0
2018-Jul-19 10:29N 37°56' E 023°38'0 0.0
2018-Jul-19 09:59N 37°56' E 023°38'0 0.6
2018-Jul-19 09:30N 37°56' E 023°38'0 0.0
2018-Jul-19 09:00N 37°56' E 023°38'0 0.0
2018-Jul-19 08:28N 37°56' E 023°38'0 0.0
2018-Jul-19 08:00N 37°56' E 023°38'0 0.0
2018-Jul-19 07:30N 37°56' E 023°38'0 0.0
2018-Jul-19 07:00N 37°56' E 023°38'0 0.0
2018-Jul-19 06:28N 37°56' E 023°38'0 0.0
2018-Jul-19 06:00N 37°56' E 023°38'2 4.1
2018-Jul-19 05:30N 37°57' E 023°36'1 1.6
2018-Jul-19 04:57N 37°58' E 023°37'0 0.0
2018-Jul-19 04:30N 37°58' E 023°37'0 0.0
2018-Jul-19 03:54N 37°58' E 023°37'0 0.0
2018-Jul-19 03:30N 37°58' E 023°37'0 0.0
2018-Jul-19 03:00N 37°58' E 023°37'0 0.0
2018-Jul-19 02:30N 37°58' E 023°37'0 0.0
2018-Jul-19 02:00N 37°58' E 023°37'0 0.0
2018-Jul-19 01:27N 37°58' E 023°37'0 0.0
2018-Jul-19 01:00N 37°58' E 023°37'0 0.0
2018-Jul-19 00:30N 37°58' E 023°37'0 0.0
2018-Jul-19 00:00N 37°58' E 023°37'0 0.0
2018-Jul-18 23:30N 37°58' E 023°37'0 0.0
2018-Jul-18 23:00N 37°58' E 023°37'0 0.0
2018-Jul-18 22:30N 37°58' E 023°37'0 0.0
2018-Jul-18 22:00N 37°58' E 023°37'0 0.0
2018-Jul-18 21:30N 37°58' E 023°37'0 0.0
2018-Jul-18 21:00N 37°58' E 023°37'0 0.0
2018-Jul-18 20:30N 37°58' E 023°37'0 0.0
2018-Jul-18 20:00N 37°58' E 023°37'0 0.0
2018-Jul-18 19:30N 37°58' E 023°37'0 0.0
2018-Jul-18 19:00N 37°58' E 023°37'0 0.0
2018-Jul-18 18:30N 37°58' E 023°37'0 0.0
2018-Jul-18 18:00N 37°58' E 023°37'0 0.0
2018-Jul-18 17:30N 37°58' E 023°37'0 0.0
2018-Jul-18 17:00N 37°58' E 023°37'0 0.0
2018-Jul-18 16:30N 37°58' E 023°37'0 0.0
2018-Jul-18 16:00N 37°58' E 023°37'0 0.0
2018-Jul-18 15:27N 37°58' E 023°37'0 0.0
2018-Jul-18 15:00N 37°58' E 023°37'0 0.0
2018-Jul-18 14:30N 37°58' E 023°37'0 0.0
2018-Jul-18 13:30N 37°58' E 023°37'0 0.4
2018-Jul-18 13:00N 37°57' E 023°36'3 5.9
2018-Jul-18 12:30N 37°58' E 023°33'4 0.7
2018-Jul-18 05:52N 38°02' E 023°31'2 6.4
2018-Jul-18 05:30N 38°00' E 023°32'3 6.4
2018-Jul-18 05:00N 37°57' E 023°34'1 2.3
2018-Jul-18 04:26N 37°57' E 023°36'0 0.1
2018-Jul-18 03:58N 37°57' E 023°36'0 0.0
2018-Jul-18 03:28N 37°57' E 023°36'0 0.0
2018-Jul-18 02:58N 37°57' E 023°36'0 0.0
2018-Jul-18 02:26N 37°57' E 023°36'0 0.0
2018-Jul-18 01:56N 37°57' E 023°36'0 0.0
2018-Jul-18 01:28N 37°57' E 023°36'0 0.0
2018-Jul-18 00:58N 37°57' E 023°36'0 0.0
2018-Jul-18 00:28N 37°57' E 023°36'0 0.0
2018-Jul-17 23:58N 37°57' E 023°36'0 0.0
2018-Jul-17 23:28N 37°57' E 023°36'0 0.0
2018-Jul-17 22:58N 37°57' E 023°36'0 0.0
2018-Jul-17 22:28N 37°57' E 023°36'0 0.0
2018-Jul-17 21:58N 37°57' E 023°36'1 1.5
2018-Jul-17 21:29N 37°58' E 023°37'0 0.0
2018-Jul-17 20:59N 37°58' E 023°37'0 0.0
2018-Jul-17 20:29N 37°58' E 023°37'0 0.0
2018-Jul-17 19:59N 37°58' E 023°37'0 0.0
2018-Jul-17 19:29N 37°58' E 023°37'0 0.0
2018-Jul-17 18:56N 37°58' E 023°37'0 0.0
2018-Jul-17 18:29N 37°58' E 023°37'0 0.0
2018-Jul-17 17:59N 37°58' E 023°37'0 0.0
2018-Jul-17 17:29N 37°58' E 023°37'0 0.0
2018-Jul-17 16:59N 37°58' E 023°37'0 0.0
2018-Jul-17 16:29N 37°58' E 023°37'0 0.0
2018-Jul-17 15:59N 37°58' E 023°37'0 0.0
2018-Jul-17 15:29N 37°58' E 023°37'0 0.0
2018-Jul-17 14:59N 37°58' E 023°37'2 4.9
2018-Jul-17 14:30N 37°57' E 023°34'3 6.4
2018-Jul-17 14:00N 38°00' E 023°33'2 0.6
2018-Jul-17 11:38N 38°02' E 023°32'1 6.2
2018-Jul-17 11:30N 38°01' E 023°32'4 7.4
2018-Jul-17 11:00N 37°58' E 023°33'3 6.4
2018-Jul-17 10:31N 37°56' E 023°37'1 2.1
2018-Jul-17 10:00N 37°57' E 023°38'0 0.0
2018-Jul-17 09:27N 37°57' E 023°38'0 0.0
2018-Jul-17 08:57N 37°57' E 023°38'0 0.0
2018-Jul-17 08:30N 37°57' E 023°38'0 0.0
2018-Jul-17 08:00N 37°57' E 023°38'0 0.0
2018-Jul-17 07:30N 37°57' E 023°38'0 0.0
2018-Jul-17 07:00N 37°57' E 023°38'0 0.1
2018-Jul-17 06:30N 37°57' E 023°38'1 2.3
2018-Jul-17 06:00N 37°56' E 023°37'3 1.3
2018-Jul-17 03:47N 37°55' E 023°33'2 6.8
2018-Jul-17 03:30N 37°56' E 023°35'2 0.3
2018-Jul-16 21:08N 37°58' E 023°37'0 0.0
2018-Jul-16 20:59N 37°58' E 023°37'0 0.0
2018-Jul-16 20:29N 37°58' E 023°37'0 0.0
2018-Jul-16 19:56N 37°58' E 023°37'0 0.0
2018-Jul-16 19:29N 37°58' E 023°37'0 0.0
2018-Jul-16 18:59N 37°58' E 023°37'1 2.0
2018-Jul-16 18:31N 37°57' E 023°36'3 5.8
2018-Jul-16 18:01N 37°59' E 023°33'4 0.7
2018-Jul-16 12:48N 38°02' E 023°35'2 8.1
2018-Jul-16 12:30N 38°00' E 023°33'3 6.6
2018-Jul-16 12:00N 37°57' E 023°35'0 0.8
2018-Jul-16 11:29N 37°57' E 023°36'0 0.0
2018-Jul-16 10:59N 37°57' E 023°36'0 0.0
2018-Jul-16 10:29N 37°57' E 023°36'0 0.0
2018-Jul-16 09:59N 37°57' E 023°36'0 0.0
2018-Jul-16 09:26N 37°57' E 023°36'0 0.0
2018-Jul-16 08:59N 37°57' E 023°36'1 1.3
2018-Jul-16 08:30N 37°57' E 023°36'2 3.2
2018-Jul-16 07:59N 37°56' E 023°38'0 0.0
2018-Jul-16 07:29N 37°56' E 023°38'0 0.0
2018-Jul-16 06:58N 37°56' E 023°38'0 0.0
2018-Jul-16 06:28N 37°56' E 023°38'0 0.0
2018-Jul-16 05:58N 37°56' E 023°38'0 0.0
2018-Jul-16 05:28N 37°56' E 023°38'0 0.0
2018-Jul-16 04:55N 37°56' E 023°38'1 3.1
2018-Jul-16 04:30N 37°56' E 023°37'0 0.4
2018-Jul-16 03:57N 37°56' E 023°37'3 5.9
2018-Jul-16 03:30N 37°57' E 023°34'3 6.2
2018-Jul-16 03:00N 38°00' E 023°34'1 0.3
2018-Jul-15 23:04N 38°01' E 023°35'0 4.3
2018-Jul-15 23:00N 38°01' E 023°35'1 0.1
2018-Jul-15 12:31N 38°02' E 023°35'0 2.8
2018-Jul-15 12:30N 38°02' E 023°35'0 0.0
2018-Jul-15 04:16N 38°02' E 023°35'2 6.2
2018-Jul-15 04:01N 38°00' E 023°34'3 6.3
2018-Jul-15 03:30N 37°57' E 023°34'2 3.3
2018-Jul-15 02:55N 37°58' E 023°37'0 0.0
2018-Jul-15 02:25N 37°58' E 023°37'0 0.0
2018-Jul-15 01:55N 37°58' E 023°37'0 0.0
2018-Jul-15 01:25N 37°58' E 023°37'0 0.0
2018-Jul-15 00:55N 37°58' E 023°37'0 0.0
2018-Jul-15 00:25N 37°58' E 023°37'0 0.0
2018-Jul-14 23:55N 37°58' E 023°37'0 0.0
2018-Jul-14 23:13N 37°58' E 023°37'0 0.0
2018-Jul-14 22:55N 37°58' E 023°37'0 0.0
2018-Jul-14 22:25N 37°58' E 023°37'0 0.0
2018-Jul-14 21:55N 37°58' E 023°37'0 0.0
2018-Jul-14 21:25N 37°58' E 023°37'0 0.0
2018-Jul-14 20:55N 37°58' E 023°37'0 0.0
2018-Jul-14 20:25N 37°58' E 023°37'0 0.0
2018-Jul-14 19:55N 37°58' E 023°37'0 0.0
2018-Jul-14 19:25N 37°58' E 023°37'0 0.0
2018-Jul-14 18:55N 37°58' E 023°37'0 0.0
2018-Jul-14 18:25N 37°58' E 023°37'0 0.0
2018-Jul-14 17:55N 37°58' E 023°37'0 0.0
2018-Jul-14 17:25N 37°58' E 023°37'0 0.0
2018-Jul-14 16:55N 37°58' E 023°37'0 0.0
2018-Jul-14 16:25N 37°58' E 023°37'0 0.0
2018-Jul-14 15:43N 37°58' E 023°37'0 0.0
2018-Jul-14 15:01N 37°58' E 023°37'0 0.0
2018-Jul-14 14:43N 37°58' E 023°37'0 0.0
2018-Jul-14 14:25N 37°58' E 023°37'0 0.0
2018-Jul-14 13:31N 37°58' E 023°37'0 0.0
2018-Jul-14 12:55N 37°58' E 023°37'0 0.0
2018-Jul-14 12:25N 37°58' E 023°37'0 0.0
2018-Jul-14 11:55N 37°58' E 023°37'0 0.0
2018-Jul-14 11:25N 37°58' E 023°37'0 0.0
2018-Jul-14 10:55N 37°58' E 023°37'0 0.0
2018-Jul-14 10:19N 37°58' E 023°37'0 0.0
2018-Jul-14 09:55N 37°58' E 023°37'0 0.0
2018-Jul-14 09:19N 37°58' E 023°37'0 0.0
2018-Jul-14 08:55N 37°58' E 023°37'0 0.0
2018-Jul-14 08:19N 37°58' E 023°37'0 0.0
2018-Jul-14 07:55N 37°58' E 023°37'0 0.0
2018-Jul-14 07:25N 37°58' E 023°37'0 0.0
2018-Jul-14 06:55N 37°58' E 023°37'0 0.0
2018-Jul-14 06:25N 37°58' E 023°37'0 0.0
2018-Jul-14 05:55N 37°58' E 023°37'0 0.0
2018-Jul-14 05:25N 37°58' E 023°37'0 0.0
2018-Jul-14 04:49N 37°58' E 023°37'0 0.0
2018-Jul-14 04:25N 37°58' E 023°37'0 0.0
2018-Jul-14 03:49N 37°58' E 023°37'0 0.0
2018-Jul-14 03:25N 37°58' E 023°37'0 0.0
2018-Jul-14 03:01N 37°58' E 023°37'0 0.0
2018-Jul-14 02:19N 37°58' E 023°37'0 0.0
2018-Jul-14 01:49N 37°58' E 023°37'0 0.0
2018-Jul-14 01:25N 37°58' E 023°37'0 0.0
2018-Jul-14 00:55N 37°58' E 023°37'0 0.0
2018-Jul-14 00:25N 37°58' E 023°37'0 0.0
2018-Jul-13 23:55N 37°58' E 023°37'0 0.0
2018-Jul-13 23:25N 37°58' E 023°37'0 0.0
2018-Jul-13 22:59N 37°58' E 023°37'0 0.0
2018-Jul-13 22:25N 37°58' E 023°37'0 0.0
2018-Jul-13 21:59N 37°58' E 023°37'0 0.0
2018-Jul-13 21:29N 37°58' E 023°37'0 0.0
2018-Jul-13 21:01N 37°58' E 023°37'0 0.0
2018-Jul-13 20:29N 37°58' E 023°37'0 0.0
2018-Jul-13 19:59N 37°58' E 023°37'0 0.0
2018-Jul-13 19:25N 37°58' E 023°37'0 0.0
2018-Jul-13 18:55N 37°58' E 023°37'0 0.0
2018-Jul-13 18:29N 37°58' E 023°37'0 0.0
2018-Jul-13 17:59N 37°58' E 023°37'0 0.0
2018-Jul-13 17:29N 37°58' E 023°37'0 0.0
2018-Jul-13 16:55N 37°58' E 023°37'0 0.0
2018-Jul-13 16:29N 37°58' E 023°37'0 0.0
2018-Jul-13 15:55N 37°58' E 023°37'0 0.0
2018-Jul-13 15:29N 37°58' E 023°37'0 0.0
2018-Jul-13 14:59N 37°58' E 023°37'0 0.0
2018-Jul-13 13:59N 37°58' E 023°37'0 0.0
2018-Jul-13 13:29N 37°58' E 023°37'0 0.0
2018-Jul-13 12:59N 37°58' E 023°37'0 0.0
2018-Jul-13 12:29N 37°58' E 023°37'0 0.0
2018-Jul-13 11:59N 37°58' E 023°37'0 0.0
2018-Jul-13 11:29N 37°58' E 023°37'0 0.0
2018-Jul-13 10:53N 37°58' E 023°37'0 0.0
2018-Jul-13 10:29N 37°58' E 023°37'0 0.0
2018-Jul-13 09:59N 37°58' E 023°37'0 0.0
2018-Jul-13 09:29N 37°58' E 023°37'0 0.0
2018-Jul-13 08:55N 37°58' E 023°37'0 0.0
2018-Jul-13 08:29N 37°58' E 023°37'0 0.1
2018-Jul-13 07:59N 37°57' E 023°37'2 3.4
2018-Jul-13 07:30N 37°56' E 023°38'0 0.0
2018-Jul-13 07:00N 37°56' E 023°38'0 0.0
2018-Jul-13 06:30N 37°56' E 023°38'0 0.0
2018-Jul-13 06:00N 37°56' E 023°38'1 1.5
2018-Jul-13 05:30N 37°56' E 023°37'1 2.3
2018-Jul-13 04:58N 37°58' E 023°37'0 0.0
2018-Jul-13 04:28N 37°58' E 023°37'0 0.0
2018-Jul-13 03:58N 37°58' E 023°37'0 0.0
2018-Jul-13 03:25N 37°58' E 023°37'0 0.0
2018-Jul-13 02:58N 37°58' E 023°37'0 0.0
2018-Jul-13 02:28N 37°58' E 023°37'0 0.0
2018-Jul-13 01:58N 37°58' E 023°37'0 0.0
2018-Jul-13 01:28N 37°58' E 023°37'0 0.0
2018-Jul-13 00:58N 37°58' E 023°37'0 0.0
2018-Jul-13 00:28N 37°58' E 023°37'0 0.0
2018-Jul-12 23:58N 37°58' E 023°37'0 0.0
2018-Jul-12 23:28N 37°58' E 023°37'0 0.0
2018-Jul-12 22:58N 37°58' E 023°37'0 0.0
2018-Jul-12 22:28N 37°58' E 023°37'0 0.0
2018-Jul-12 21:58N 37°58' E 023°37'  

Dump ship's entire track history